Time;durP1;ratioP1;P1;durP2;ratioP2;P2;SDS_P1;SDS_P2;PMS_P1;PMS_P2;Temp;Humidity;BMP_temperature;BMP_pressure;BME280_temperature;BME280_humidity;BME280_pressure;Samples;Min_cycle;Max_cycle;Signal;HPM_P1;HPM_P2
2021/12/02 00:01:15;;;;;;;5.13;1.15;;;;;;;;;;5110415;28;20058;-30
2021/12/02 00:03:41;;;;;;;5.43;1.25;;;;;;;;;;5110752;28;20035;-31
2021/12/02 00:06:09;;;;;;;6.18;1.90;;;;;;;;;;5110850;28;20114;-29
2021/12/02 00:08:35;;;;;;;10.07;1.50;;;;;;;;;;5110913;28;20039;-30
2021/12/02 00:11:01;;;;;;;2.70;1.02;;;;;;;;;;5110626;28;20407;-29
2021/12/02 00:13:29;;;;;;;7.15;1.67;;;;;;;;;;5110963;28;20123;-29
2021/12/02 00:16:06;;;;;;;7.65;1.33;;;;;;;;;;5110897;28;20048;-29
2021/12/02 00:21:15;;;;;;;3.35;0.93;;;;;;;;;;5110448;28;20076;-30
2021/12/02 00:24:04;;;;;;;9.43;1.80;;;;;;;;;;5110763;28;20120;-30
2021/12/02 00:26:31;;;;;;;5.63;1.60;;;;;;;;;;5096486;28;20533;-29
2021/12/02 00:28:59;;;;;;;5.18;1.30;;;;;;;;;;5105149;28;20424;-29
2021/12/02 00:31:29;;;;;;;4.50;1.27;;;;;;;;;;5106485;28;20325;-31
2021/12/02 00:33:57;;;;;;;4.05;1.42;;;;;;;;;;5109926;28;20047;-30
2021/12/02 00:36:24;;;;;;;4.63;1.20;;;;;;;;;;5111057;28;20046;-30
2021/12/02 00:38:51;;;;;;;7.93;1.40;;;;;;;;;;5110497;28;20040;-29
2021/12/02 00:41:18;;;;;;;5.60;1.38;;;;;;;;;;5108425;28;20051;-30
2021/12/02 00:43:45;;;;;;;3.63;1.05;;;;;;;;;;5110608;28;20096;-30
2021/12/02 00:46:12;;;;;;;6.65;1.27;;;;;;;;;;5114881;28;20511;-29
2021/12/02 00:48:39;;;;;;;7.20;1.67;;;;;;;;;;5114796;28;20072;-29
2021/12/02 00:51:06;;;;;;;7.85;2.05;;;;;;;;;;5114479;28;20047;-29
2021/12/02 00:53:33;;;;;;;5.43;1.33;;;;;;;;;;5114657;28;20043;-29
2021/12/02 00:56:02;;;;;;;8.48;1.80;;;;;;;;;;5114107;28;20046;-31
2021/12/02 00:58:28;;;;;;;6.97;1.77;;;;;;;;;;5114852;28;20043;-29
2021/12/02 01:00:54;;;;;;;6.63;1.23;;;;;;;;;;5114321;28;20516;-29
2021/12/02 01:05:57;;;;;;;2.88;1.05;;;;;;;;;;5300940;22;19920;-84
2021/12/02 01:08:23;;;;;;;6.57;1.88;;;;;;;;;;5066022;28;20051;-82
2021/12/02 01:10:49;;;;;;;7.72;1.30;;;;;;;;;;5063331;28;20041;-81
2021/12/02 01:13:16;;;;;;;9.63;1.27;;;;;;;;;;5062881;28;20043;-83
2021/12/02 01:15:42;;;;;;;6.45;1.00;;;;;;;;;;5063602;28;20182;-83
2021/12/02 01:18:08;;;;;;;6.63;1.48;;;;;;;;;;5063475;28;20058;-82
2021/12/02 01:20:35;;;;;;;3.60;0.95;;;;;;;;;;5063404;28;20509;-83
2021/12/02 01:23:01;;;;;;;3.83;1.25;;;;;;;;;;5046740;28;20078;-82
2021/12/02 01:25:30;;;;;;;3.28;1.08;;;;;;;;;;5063178;28;20057;-82
2021/12/02 01:27:57;;;;;;;6.53;1.10;;;;;;;;;;5062861;28;20051;-82
2021/12/02 01:30:25;;;;;;;7.72;1.35;;;;;;;;;;5062825;28;20049;-82
2021/12/02 01:32:51;;;;;;;2.90;0.93;;;;;;;;;;5063880;28;20041;-82
2021/12/02 01:35:20;;;;;;;6.95;1.65;;;;;;;;;;5046562;28;20048;-83
2021/12/02 01:37:46;;;;;;;6.20;1.30;;;;;;;;;;5046447;28;20051;-83
2021/12/02 01:40:12;;;;;;;1.77;0.77;;;;;;;;;;5061262;28;20044;-86
2021/12/02 01:42:40;;;;;;;2.35;0.80;;;;;;;;;;5060703;28;20135;-83
2021/12/02 01:45:06;;;;;;;4.35;0.95;;;;;;;;;;5060043;28;20096;-83
2021/12/02 01:47:33;;;;;;;3.20;0.90;;;;;;;;;;5042534;28;20060;-83
2021/12/02 01:50:03;;;;;;;3.53;0.98;;;;;;;;;;5041249;28;20041;-86
2021/12/02 01:52:31;;;;;;;2.67;0.90;;;;;;;;;;5054671;28;20032;-90
2021/12/02 01:55:08;;;;;;;5.13;0.85;;;;;;;;;;5083055;28;20036;-91
2021/12/02 01:57:35;;;;;;;4.32;1.08;;;;;;;;;;5068509;28;20044;-82
2021/12/02 02:00:04;;;;;;;4.18;1.10;;;;;;;;;;5063989;28;20048;-83
2021/12/02 02:02:31;;;;;;;4.25;1.15;;;;;;;;;;5063116;28;20068;-82
2021/12/02 02:05:01;;;;;;;4.63;0.90;;;;;;;;;;5063234;28;20032;-83
2021/12/02 02:07:27;;;;;;;6.00;1.00;;;;;;;;;;5046238;28;20170;-83
2021/12/02 02:09:53;;;;;;;2.30;0.75;;;;;;;;;;5046977;28;20047;-82
2021/12/02 02:12:21;;;;;;;3.78;1.33;;;;;;;;;;5062641;28;20131;-82
2021/12/02 02:14:48;;;;;;;2.88;1.00;;;;;;;;;;5058945;28;20054;-83
2021/12/02 02:17:27;;;;;;;4.32;0.90;;;;;;;;;;5040539;28;20040;-85
2021/12/02 02:19:53;;;;;;;4.85;1.10;;;;;;;;;;5064714;28;20078;-90
2021/12/02 02:22:22;;;;;;;3.85;0.90;;;;;;;;;;5063922;28;20074;-83
2021/12/02 02:24:48;;;;;;;5.38;0.90;;;;;;;;;;5046649;28;20040;-83
2021/12/02 02:27:14;;;;;;;3.65;0.85;;;;;;;;;;5063448;28;20060;-84
2021/12/02 02:29:40;;;;;;;4.28;1.00;;;;;;;;;;5044938;28;20410;-83
2021/12/02 02:32:07;;;;;;;6.45;1.15;;;;;;;;;;5059909;28;20036;-84
2021/12/02 02:34:33;;;;;;;7.05;1.02;;;;;;;;;;5043760;28;20044;-85
2021/12/02 02:37:02;;;;;;;4.00;0.77;;;;;;;;;;5059946;28;20041;-83
2021/12/02 02:39:30;;;;;;;2.47;0.60;;;;;;;;;;5044241;28;20036;-84
2021/12/02 02:42:01;;;;;;;0.82;0.55;;;;;;;;;;5060790;28;20053;-87
2021/12/02 02:44:28;;;;;;;2.60;0.85;;;;;;;;;;5060978;28;20059;-84
2021/12/02 02:46:54;;;;;;;3.08;0.75;;;;;;;;;;5061295;28;20131;-83
2021/12/02 02:49:20;;;;;;;3.55;0.80;;;;;;;;;;5062143;28;20497;-83
2021/12/02 02:51:47;;;;;;;1.88;0.98;;;;;;;;;;5062370;28;20033;-85
2021/12/02 02:54:15;;;;;;;2.70;0.50;;;;;;;;;;5043606;28;20047;-83
2021/12/02 02:56:50;;;;;;;3.45;0.77;;;;;;;;;;5043822;28;20049;-82
2021/12/02 02:59:33;;;;;;;2.05;0.60;;;;;;;;;;5078818;28;20517;-82
2021/12/02 03:02:08;;;;;;;1.55;0.70;;;;;;;;;;5069399;28;20048;-83
2021/12/02 03:07:26;;;;;;;4.07;0.80;;;;;;;;;;5080757;28;20068;-83
2021/12/02 03:10:00;;;;;;;2.40;0.57;;;;;;;;;;5064579;28;20044;-82
2021/12/02 03:12:51;;;;;;;;;;;;;;;;;;5082547;28;20375;-83
2021/12/02 03:17:51;;;;;;;2.75;0.70;;;;;;;;;;5108468;27;20388;-29
2021/12/02 03:20:17;;;;;;;1.58;0.50;;;;;;;;;;5108012;28;20036;-28
2021/12/02 03:22:43;;;;;;;0.93;0.50;;;;;;;;;;5108457;28;20036;-29
2021/12/02 03:25:09;;;;;;;1.17;0.73;;;;;;;;;;5107478;28;20047;-30
2021/12/02 03:27:35;;;;;;;1.95;0.65;;;;;;;;;;5108602;28;20044;-30
2021/12/02 03:30:06;;;;;;;2.70;0.52;;;;;;;;;;5108397;28;20043;-28
2021/12/02 03:32:32;;;;;;;1.33;0.55;;;;;;;;;;5108473;28;20044;-29
2021/12/02 03:34:58;;;;;;;2.20;0.40;;;;;;;;;;5107809;28;20492;-29
2021/12/02 03:37:24;;;;;;;1.08;0.50;;;;;;;;;;5108147;28;20047;-30
2021/12/02 03:39:50;;;;;;;1.52;0.63;;;;;;;;;;5107892;28;20400;-30
2021/12/02 03:42:16;;;;;;;2.40;0.70;;;;;;;;;;5108335;28;20071;-29
2021/12/02 03:44:42;;;;;;;2.95;0.75;;;;;;;;;;5107865;28;20039;-29
2021/12/02 03:47:08;;;;;;;2.20;0.70;;;;;;;;;;5108131;28;20597;-28
2021/12/02 03:49:35;;;;;;;1.85;0.77;;;;;;;;;;5108005;28;20093;-30
2021/12/02 03:52:01;;;;;;;2.05;0.70;;;;;;;;;;5107649;28;20046;-29
2021/12/02 03:54:27;;;;;;;0.73;0.50;;;;;;;;;;5107386;28;20036;-30
2021/12/02 03:56:53;;;;;;;1.38;0.70;;;;;;;;;;5107773;28;20079;-30
2021/12/02 03:59:19;;;;;;;1.92;0.80;;;;;;;;;;5107829;28;20040;-32
2021/12/02 04:01:46;;;;;;;2.65;0.98;;;;;;;;;;5107342;28;20381;-28
2021/12/02 04:04:12;;;;;;;2.60;0.77;;;;;;;;;;5106247;28;20043;-29
2021/12/02 04:06:39;;;;;;;3.55;1.10;;;;;;;;;;5107063;28;20039;-29
2021/12/02 04:09:19;;;;;;;2.58;0.95;;;;;;;;;;5107481;28;20399;-27
2021/12/02 04:12:13;;;;;;;7.63;4.10;;;;;;;;;;5107152;28;20044;-28
2021/12/02 04:14:37;;;;;;;4.63;1.98;;;;;;;;;;5106265;28;20400;-26
2021/12/02 04:17:05;;;;;;;7.43;4.32;;;;;;;;;;5106905;28;20106;-30
2021/12/02 04:19:31;;;;;;;8.15;4.28;;;;;;;;;;5107970;28;20043;-32
2021/12/02 04:21:58;;;;;;;12.73;6.53;;;;;;;;;;5107279;28;20400;-32
2021/12/02 04:24:25;;;;;;;6.30;2.80;;;;;;;;;;5106007;28;20075;-34
2021/12/02 04:26:51;;;;;;;3.92;0.90;;;;;;;;;;5107393;28;20168;-33
2021/12/02 04:29:17;;;;;;;3.03;1.27;;;;;;;;;;5093061;28;20047;-32
2021/12/02 04:31:44;;;;;;;4.07;1.10;;;;;;;;;;5093455;28;20055;-31
2021/12/02 04:34:11;;;;;;;1.05;0.68;;;;;;;;;;5092754;28;20059;-32
2021/12/02 04:36:37;;;;;;;1.08;0.90;;;;;;;;;;5092870;28;20040;-33
2021/12/02 04:39:03;;;;;;;2.17;1.10;;;;;;;;;;5092352;28;20140;-31
2021/12/02 04:41:29;;;;;;;2.70;1.10;;;;;;;;;;5090823;28;20036;-33
2021/12/02 04:43:55;;;;;;;2.30;0.80;;;;;;;;;;5090637;28;20040;-31
2021/12/02 04:46:21;;;;;;;1.60;0.70;;;;;;;;;;5092060;28;20043;-31
2021/12/02 04:48:47;;;;;;;2.50;1.05;;;;;;;;;;5087096;28;20048;-32
2021/12/02 04:51:13;;;;;;;3.65;0.82;;;;;;;;;;5089345;28;20109;-34
2021/12/02 04:53:39;;;;;;;1.70;0.60;;;;;;;;;;5092178;28;20683;-32
2021/12/02 04:56:05;;;;;;;3.65;0.70;;;;;;;;;;5092960;28;20040;-32
2021/12/02 04:58:31;;;;;;;2.97;1.27;;;;;;;;;;5092408;28;20312;-32
2021/12/02 05:00:58;;;;;;;2.17;0.88;;;;;;;;;;5092421;28;20067;-33
2021/12/02 05:03:31;;;;;;;3.22;1.00;;;;;;;;;;5091063;28;20110;-28
2021/12/02 05:05:57;;;;;;;3.63;1.23;;;;;;;;;;5079287;28;20095;-29
2021/12/02 05:08:23;;;;;;;2.83;0.95;;;;;;;;;;5092037;28;20059;-28
2021/12/02 05:10:49;;;;;;;2.30;1.20;;;;;;;;;;5083833;28;20079;-28
2021/12/02 05:13:15;;;;;;;3.08;1.25;;;;;;;;;;5083248;28;20079;-28
2021/12/02 05:15:41;;;;;;;2.72;1.60;;;;;;;;;;5082799;28;20457;-28
2021/12/02 05:18:09;;;;;;;2.17;1.00;;;;;;;;;;5083720;28;20032;-28
2021/12/02 05:20:36;;;;;;;4.40;1.05;;;;;;;;;;5089063;28;20044;-28
2021/12/02 05:23:05;;;;;;;3.50;1.05;;;;;;;;;;5090585;28;20093;-29
2021/12/02 05:25:32;;;;;;;3.38;0.95;;;;;;;;;;5091004;28;20040;-29
2021/12/02 05:27:58;;;;;;;2.60;1.05;;;;;;;;;;5091030;28;20507;-28
2021/12/02 05:30:24;;;;;;;3.22;1.40;;;;;;;;;;5091555;28;20075;-29
2021/12/02 05:32:50;;;;;;;4.07;1.00;;;;;;;;;;5092466;28;20047;-28
2021/12/02 05:35:16;;;;;;;3.75;0.90;;;;;;;;;;5090386;28;20040;-29
2021/12/02 05:37:42;;;;;;;1.48;0.80;;;;;;;;;;5092422;28;20389;-29
2021/12/02 05:40:08;;;;;;;2.03;1.38;;;;;;;;;;5091112;28;20040;-28
2021/12/02 05:42:35;;;;;;;2.50;1.42;;;;;;;;;;5091003;28;20044;-29
2021/12/02 05:45:01;;;;;;;2.75;1.05;;;;;;;;;;5090309;28;20040;-29
2021/12/02 05:47:27;;;;;;;1.02;0.70;;;;;;;;;;5090303;28;20127;-28
2021/12/02 05:49:53;;;;;;;1.40;0.77;;;;;;;;;;5097334;28;20071;-30
2021/12/02 05:52:19;;;;;;;2.17;0.98;;;;;;;;;;5111838;28;20035;-29
2021/12/02 05:54:45;;;;;;;3.47;0.90;;;;;;;;;;5092727;28;20075;-29
2021/12/02 05:57:11;;;;;;;2.15;0.80;;;;;;;;;;5071308;28;20495;-29
2021/12/02 05:59:37;;;;;;;2.42;0.68;;;;;;;;;;5071585;28;20098;-27
2021/12/02 06:02:07;;;;;;;2.17;0.82;;;;;;;;;;5086213;28;20071;-29
2021/12/02 06:04:34;;;;;;;1.42;0.70;;;;;;;;;;5088765;28;20048;-30
2021/12/02 06:07:02;;;;;;;3.70;0.80;;;;;;;;;;5091378;28;20488;-29
2021/12/02 06:09:28;;;;;;;1.45;0.80;;;;;;;;;;5091341;28;20047;-29
2021/12/02 06:11:54;;;;;;;4.53;0.80;;;;;;;;;;5092072;28;20039;-30
2021/12/02 06:14:20;;;;;;;1.27;0.73;;;;;;;;;;5091687;28;20044;-30
2021/12/02 06:16:52;;;;;;;1.80;0.80;;;;;;;;;;5091732;28;20059;-31
2021/12/02 06:19:18;;;;;;;3.70;1.10;;;;;;;;;;5091670;28;20040;-29
2021/12/02 06:21:44;;;;;;;2.55;0.75;;;;;;;;;;5091930;28;20058;-29
2021/12/02 06:24:11;;;;;;;8.43;2.80;;;;;;;;;;5090200;28;20389;-29
2021/12/02 06:26:45;;;;;;;5.03;1.85;;;;;;;;;;5091897;28;20093;-29
2021/12/02 06:29:14;;;;;;;4.78;2.20;;;;;;;;;;5091105;28;20485;-30
2021/12/02 06:31:40;;;;;;;1.98;1.30;;;;;;;;;;5073182;28;20051;-29
2021/12/02 06:34:07;;;;;;;4.22;2.53;;;;;;;;;;5091317;28;20097;-30
2021/12/02 06:36:33;;;;;;;7.05;3.58;;;;;;;;;;5090067;28;20266;-29
2021/12/02 06:39:00;;;;;;;16.20;6.65;;;;;;;;;;5091310;28;20392;-28
2021/12/02 06:41:26;;;;;;;63.53;23.92;;;;;;;;;;5091523;28;20070;-29
2021/12/02 06:43:52;;;;;;;41.25;16.90;;;;;;;;;;5091122;28;20051;-29
2021/12/02 06:46:18;;;;;;;20.65;8.80;;;;;;;;;;5091568;28;20048;-29
2021/12/02 06:48:44;;;;;;;46.55;18.95;;;;;;;;;;5091250;28;20572;-28
2021/12/02 06:51:13;;;;;;;107.95;45.30;;;;;;;;;;5091234;28;20032;-29
2021/12/02 06:53:39;;;;;;;20.45;9.55;;;;;;;;;;5091128;28;20504;-29
2021/12/02 06:56:14;;;;;;;17.40;7.43;;;;;;;;;;5090596;28;20044;-28
2021/12/02 06:58:40;;;;;;;9.45;4.30;;;;;;;;;;5090055;28;20093;-29
2021/12/02 07:01:06;;;;;;;23.98;11.85;;;;;;;;;;5088071;28;20044;-29
2021/12/02 07:03:38;;;;;;;19.17;9.55;;;;;;;;;;5089188;28;20047;-28
2021/12/02 07:06:04;;;;;;;12.45;6.55;;;;;;;;;;5087713;28;20059;-28
2021/12/02 07:08:31;;;;;;;20.45;9.40;;;;;;;;;;5089595;28;20047;-30
2021/12/02 07:11:06;;;;;;;7.85;3.75;;;;;;;;;;5089562;28;20040;-30
2021/12/02 07:13:32;;;;;;;3.03;1.20;;;;;;;;;;5090249;28;20039;-30
2021/12/02 07:16:02;;;;;;;5.03;1.75;;;;;;;;;;5089799;28;20137;-31
2021/12/02 07:18:36;;;;;;;2.70;0.93;;;;;;;;;;5084735;28;20028;-30
2021/12/02 07:21:02;;;;;;;;;;;;;;;;;;5093373;28;20035;-28
2021/12/02 07:23:28;;;;;;;1.02;0.93;;;;;;;;;;5109388;28;19916;-30
2021/12/02 07:25:54;;;;;;;7.72;3.88;;;;;;;;;;5109138;28;20035;-30
2021/12/02 07:28:21;;;;;;;10.35;4.90;;;;;;;;;;5109677;28;20381;-28
2021/12/02 07:30:52;;;;;;;1.63;0.80;;;;;;;;;;5109822;28;20039;-29
2021/12/02 07:33:19;;;;;;;1.45;0.90;;;;;;;;;;5107584;28;20047;-29
2021/12/02 07:35:45;;;;;;;1.80;0.80;;;;;;;;;;5110761;28;20045;-29
2021/12/02 07:38:11;;;;;;;4.05;1.20;;;;;;;;;;5109505;28;20044;-28
2021/12/02 07:40:40;;;;;;;1.20;0.75;;;;;;;;;;5111061;28;20399;-29
2021/12/02 07:43:06;;;;;;;1.98;0.82;;;;;;;;;;5110679;28;20036;-29
2021/12/02 07:45:41;;;;;;;1.73;1.17;;;;;;;;;;5108430;28;20385;-30
2021/12/02 07:48:09;;;;;;;2.50;1.30;;;;;;;;;;5107036;28;20390;-29
2021/12/02 07:50:39;;;;;;;4.82;1.50;;;;;;;;;;5108637;28;20035;-28
2021/12/02 07:53:06;;;;;;;1.33;1.23;;;;;;;;;;5109451;28;20388;-30
2021/12/02 07:55:35;;;;;;;4.35;2.03;;;;;;;;;;5108844;28;20040;-31
2021/12/02 07:58:09;;;;;;;14.70;5.97;;;;;;;;;;5108187;28;20492;-30
2021/12/02 08:00:35;;;;;;;6.25;3.08;;;;;;;;;;5109753;28;20130;-31
2021/12/02 08:03:01;;;;;;;5.47;2.53;;;;;;;;;;5111290;28;20031;-30
2021/12/02 08:05:33;;;;;;;2.53;1.60;;;;;;;;;;5112501;28;20043;-30
2021/12/02 08:08:02;;;;;;;6.25;2.45;;;;;;;;;;5112672;28;20046;-30
2021/12/02 08:10:29;;;;;;;5.95;3.75;;;;;;;;;;5113667;28;20096;-29
2021/12/02 08:12:55;;;;;;;2.40;2.20;;;;;;;;;;5113890;28;20462;-30
2021/12/02 08:15:24;;;;;;;4.90;2.78;;;;;;;;;;5113476;27;20043;-30
2021/12/02 08:17:54;;;;;;;3.28;2.47;;;;;;;;;;5113770;28;20507;-30
2021/12/02 08:20:27;;;;;;;2.67;2.13;;;;;;;;;;5112576;28;20047;-29
2021/12/02 08:23:02;;;;;;;2.97;2.13;;;;;;;;;;5113330;28;20043;-29
2021/12/02 08:25:29;;;;;;;5.40;2.20;;;;;;;;;;5113346;28;20079;-30
2021/12/02 08:28:14;;;;;;;2.33;2.00;;;;;;;;;;5113726;28;20455;-29
2021/12/02 08:30:40;;;;;;;3.13;1.83;;;;;;;;;;5113853;28;20050;-29
2021/12/02 08:33:12;;;;;;;3.25;2.20;;;;;;;;;;5113473;28;20044;-29
2021/12/02 08:35:48;;;;;;;2.80;1.73;;;;;;;;;;5112288;28;20123;-29
2021/12/02 08:38:16;;;;;;;2.80;1.90;;;;;;;;;;5113316;28;20100;-30
2021/12/02 08:40:43;;;;;;;2.75;1.80;;;;;;;;;;5112331;28;20100;-30
2021/12/02 08:43:10;;;;;;;5.25;2.40;;;;;;;;;;5112226;28;20039;-29
2021/12/02 08:45:37;;;;;;;3.47;2.28;;;;;;;;;;5112810;28;20100;-31
2021/12/02 08:48:04;;;;;;;3.60;2.35;;;;;;;;;;5112357;28;20668;-29
2021/12/02 08:50:30;;;;;;;3.00;2.35;;;;;;;;;;5113299;28;20035;-30
2021/12/02 08:53:14;;;;;;;3.50;2.55;;;;;;;;;;5113605;28;20050;-31
2021/12/02 08:55:43;;;;;;;2.70;2.00;;;;;;;;;;5112593;28;20601;-31
2021/12/02 08:58:10;;;;;;;2.63;2.22;;;;;;;;;;5113239;27;20462;-30
2021/12/02 09:00:39;;;;;;;3.78;2.22;;;;;;;;;;5113163;28;20165;-30
2021/12/02 09:03:06;;;;;;;2.58;2.05;;;;;;;;;;5113334;28;20043;-30
2021/12/02 09:05:32;;;;;;;3.10;1.85;;;;;;;;;;5112355;28;20587;-30
2021/12/02 09:08:01;;;;;;;4.82;1.80;;;;;;;;;;5112836;27;20089;-30
2021/12/02 09:11:01;;;;;;;2.05;1.60;;;;;;;;;;5112528;28;20040;-30
2021/12/02 09:13:20;;;;;;;2.72;1.50;;;;;;;;;;5112131;27;20050;-29
2021/12/02 09:15:48;;;;;;;1.63;1.48;;;;;;;;;;5112046;28;20035;-31
2021/12/02 09:18:14;;;;;;;2.38;1.50;;;;;;;;;;5112845;28;20031;-30
2021/12/02 09:20:42;;;;;;;1.40;1.23;;;;;;;;;;5112468;27;20047;-30
2021/12/02 09:23:13;;;;;;;1.85;1.48;;;;;;;;;;5111150;28;20043;-29
2021/12/02 09:25:48;;;;;;;2.03;1.40;;;;;;;;;;5112010;28;20040;-30
2021/12/02 09:28:15;;;;;;;1.48;1.00;;;;;;;;;;5112547;28;20043;-30
2021/12/02 09:30:41;;;;;;;1.90;1.10;;;;;;;;;;5112315;28;20118;-29
2021/12/02 09:33:07;;;;;;;1.35;0.95;;;;;;;;;;5112482;28;20036;-28
2021/12/02 09:35:36;;;;;;;2.88;1.25;;;;;;;;;;5111506;28;20086;-30
2021/12/02 09:38:05;;;;;;;1.50;1.00;;;;;;;;;;5112144;28;20507;-29
2021/12/02 09:40:33;;;;;;;1.02;1.00;;;;;;;;;;5112060;28;20071;-30
2021/12/02 09:42:59;;;;;;;1.65;1.30;;;;;;;;;;5112456;28;20040;-30
2021/12/02 09:45:25;;;;;;;3.85;1.33;;;;;;;;;;5111881;28;20039;-31
2021/12/02 09:47:52;;;;;;;2.13;1.20;;;;;;;;;;5111931;28;20105;-31
2021/12/02 09:50:26;;;;;;;1.10;0.80;;;;;;;;;;5111986;28;20404;-31
2021/12/02 09:52:53;;;;;;;3.22;1.30;;;;;;;;;;5111992;28;20484;-29
2021/12/02 09:57:50;;;;;;;0.98;0.80;;;;;;;;;;5111802;28;20044;-29
2021/12/02 10:00:19;;;;;;;2.35;0.80;;;;;;;;;;5111971;28;20381;-29
2021/12/02 10:05:55;;;;;;;2.95;0.93;;;;;;;;;;5108524;28;20043;-28
2021/12/02 10:08:23;;;;;;;2.10;1.10;;;;;;;;;;5110765;28;20051;-29
2021/12/02 10:10:58;;;;;;;4.05;1.20;;;;;;;;;;5111650;27;20036;-29
2021/12/02 10:13:32;;;;;;;2.55;1.30;;;;;;;;;;5110944;28;20374;-30
2021/12/02 10:16:11;;;;;;;1.60;1.10;;;;;;;;;;5111341;28;20090;-30
2021/12/02 10:21:39;;;;;;;2.78;0.98;;;;;;;;;;5110973;28;20043;-29
2021/12/02 10:24:10;;;;;;;0.70;0.70;;;;;;;;;;5110552;28;20036;-28
2021/12/02 10:26:40;;;;;;;1.77;0.75;;;;;;;;;;5110809;28;20055;-31
2021/12/02 10:29:29;;;;;;;2.05;0.80;;;;;;;;;;5110958;28;20062;-33
2021/12/02 10:32:13;;;;;;;2.45;1.10;;;;;;;;;;5110741;28;20053;-31
2021/12/02 10:34:49;;;;;;;1.55;1.20;;;;;;;;;;5110046;28;20039;-28
2021/12/02 10:37:18;;;;;;;1.58;1.13;;;;;;;;;;5111176;28;20126;-28
2021/12/02 10:40:13;;;;;;;3.50;1.02;;;;;;;;;;5111385;28;20047;-30
2021/12/02 10:42:42;;;;;;;2.05;1.10;;;;;;;;;;5110402;28;20125;-33
2021/12/02 10:45:19;;;;;;;2.53;0.90;;;;;;;;;;5110318;28;20042;-33
2021/12/02 10:47:49;;;;;;;3.28;1.30;;;;;;;;;;5111095;28;20089;-31
2021/12/02 10:50:15;;;;;;;2.38;1.63;;;;;;;;;;5111702;28;20048;-30
2021/12/02 10:52:41;;;;;;;2.70;1.67;;;;;;;;;;5111578;28;20392;-34
2021/12/02 10:55:07;;;;;;;2.38;1.50;;;;;;;;;;5110195;28;20556;-32
2021/12/02 10:57:35;;;;;;;2.58;1.60;;;;;;;;;;5111026;28;20047;-33
2021/12/02 11:00:14;;;;;;;1.58;1.30;;;;;;;;;;5110788;28;20040;-31
2021/12/02 11:02:45;;;;;;;2.08;1.30;;;;;;;;;;5111102;28;20045;-33
2021/12/02 11:05:33;;;;;;;2.92;1.00;;;;;;;;;;5110441;28;20090;-30
2021/12/02 11:08:05;;;;;;;1.65;1.20;;;;;;;;;;5111440;28;20052;-30
2021/12/02 11:10:36;;;;;;;1.48;1.30;;;;;;;;;;5111458;28;20075;-29
2021/12/02 11:13:03;;;;;;;3.60;1.30;;;;;;;;;;5111661;28;20048;-29
2021/12/02 11:15:33;;;;;;;4.13;1.50;;;;;;;;;;5111431;28;20039;-33
2021/12/02 11:18:04;;;;;;;1.80;1.08;;;;;;;;;;5111265;28;20040;-30
2021/12/02 11:20:32;;;;;;;2.63;1.20;;;;;;;;;;5111014;28;20063;-30
2021/12/02 11:23:01;;;;;;;3.85;1.20;;;;;;;;;;5110039;28;20043;-30
2021/12/02 11:25:28;;;;;;;2.80;0.90;;;;;;;;;;5110534;28;20447;-35
2021/12/02 11:27:54;;;;;;;0.30;0.30;;;;;;;;;;5110943;28;20100;-36
2021/12/02 11:30:28;;;;;;;0.68;0.50;;;;;;;;;;5109504;28;20047;-34
2021/12/02 11:32:58;;;;;;;0.65;0.30;;;;;;;;;;5111139;28;20389;-36
2021/12/02 11:35:34;;;;;;;0.30;0.30;;;;;;;;;;5110370;28;20048;-34
2021/12/02 11:38:17;;;;;;;1.35;0.47;;;;;;;;;;5112200;28;20032;-33
2021/12/02 11:40:49;;;;;;;0.50;0.50;;;;;;;;;;5114701;28;20073;-35
2021/12/02 11:43:17;;;;;;;3.17;0.82;;;;;;;;;;5114161;28;20516;-29
2021/12/02 11:45:46;;;;;;;0.60;0.50;;;;;;;;;;5115045;28;20036;-29
2021/12/02 11:48:13;;;;;;;2.20;0.90;;;;;;;;;;5115192;28;20043;-34
2021/12/02 11:50:40;;;;;;;1.75;1.17;;;;;;;;;;5114621;28;20039;-34
2021/12/02 11:53:06;;;;;;;1.95;0.50;;;;;;;;;;5115269;28;20119;-29
2021/12/02 11:55:34;;;;;;;0.77;0.70;;;;;;;;;;5115094;27;20051;-30
2021/12/02 11:58:00;;;;;;;2.38;0.95;;;;;;;;;;5114958;28;20044;-29
2021/12/02 12:00:27;;;;;;;1.63;0.90;;;;;;;;;;5115056;28;20068;-29
2021/12/02 12:02:53;;;;;;;1.40;1.00;;;;;;;;;;5114844;28;20511;-30
2021/12/02 12:05:26;;;;;;;4.03;1.73;;;;;;;;;;5114808;28;20035;-31
2021/12/02 12:07:52;;;;;;;1.92;1.13;;;;;;;;;;5114657;28;20145;-29
2021/12/02 12:10:25;;;;;;;1.15;0.70;;;;;;;;;;5114863;28;20481;-29
2021/12/02 12:12:51;;;;;;;0.98;0.50;;;;;;;;;;5114559;28;20043;-31
2021/12/02 12:15:32;;;;;;;0.30;0.30;;;;;;;;;;5114947;28;20092;-30
2021/12/02 12:17:59;;;;;;;1.27;0.40;;;;;;;;;;5114781;28;20046;-29
2021/12/02 12:20:48;;;;;;;1.52;0.50;;;;;;;;;;5114023;28;20510;-34
2021/12/02 12:23:30;;;;;;;1.05;0.50;;;;;;;;;;5113052;28;20130;-34
2021/12/02 12:26:14;;;;;;;4.00;0.90;;;;;;;;;;5113681;28;20035;-35
2021/12/02 12:28:59;;;;;;;1.13;0.80;;;;;;;;;;5113370;28;20062;-29
2021/12/02 12:31:25;;;;;;;0.80;0.80;;;;;;;;;;5114089;28;20043;-29
2021/12/02 12:33:51;;;;;;;1.63;1.30;;;;;;;;;;5113021;28;20460;-29
2021/12/02 12:36:36;;;;;;;1.60;0.95;;;;;;;;;;5113877;28;20093;-29
2021/12/02 12:39:33;;;;;;;1.20;0.60;;;;;;;;;;5113480;28;20090;-28
2021/12/02 12:42:11;;;;;;;0.75;0.70;;;;;;;;;;5113304;28;20047;-28
2021/12/02 12:44:47;;;;;;;1.50;1.15;;;;;;;;;;5112722;28;20047;-29
2021/12/02 12:47:13;;;;;;;1.90;1.20;;;;;;;;;;5113542;28;20153;-29
2021/12/02 12:49:39;;;;;;;1.80;1.00;;;;;;;;;;5112304;27;20074;-30
2021/12/02 12:52:19;;;;;;;1.45;0.93;;;;;;;;;;5113617;28;20127;-35
2021/12/02 12:55:03;;;;;;;2.15;0.90;;;;;;;;;;5112423;28;20068;-35
2021/12/02 12:57:29;;;;;;;0.80;0.60;;;;;;;;;;5113519;28;20065;-31
2021/12/02 12:59:58;;;;;;;0.57;0.55;;;;;;;;;;5112773;28;20058;-32
2021/12/02 13:02:25;;;;;;;1.65;0.85;;;;;;;;;;5113153;28;20062;-33
2021/12/02 13:04:54;;;;;;;0.77;0.77;;;;;;;;;;5112466;28;20035;-34
2021/12/02 13:07:20;;;;;;;1.10;0.82;;;;;;;;;;5113259;28;20521;-29
2021/12/02 13:09:59;;;;;;;1.10;0.60;;;;;;;;;;5112614;28;20043;-32
2021/12/02 13:12:37;;;;;;;0.85;0.60;;;;;;;;;;5112838;28;20050;-31
2021/12/02 13:15:03;;;;;;;0.70;0.60;;;;;;;;;;5112339;28;20035;-32
2021/12/02 13:17:40;;;;;;;1.17;0.75;;;;;;;;;;5112401;28;20047;-31
2021/12/02 13:20:19;;;;;;;1.00;0.85;;;;;;;;;;5112625;28;20557;-32
2021/12/02 13:23:08;;;;;;;1.25;1.00;;;;;;;;;;5112582;28;20453;-29
2021/12/02 13:25:51;;;;;;;2.08;1.10;;;;;;;;;;5111320;28;20050;-31
2021/12/02 13:28:18;;;;;;;1.35;1.25;;;;;;;;;;5112804;28;20043;-30
2021/12/02 13:30:55;;;;;;;2.08;1.88;;;;;;;;;;5112401;28;20047;-30
2021/12/02 13:33:31;;;;;;;1.98;1.88;;;;;;;;;;5112153;28;20088;-31
2021/12/02 13:36:17;;;;;;;1.95;1.73;;;;;;;;;;5113008;28;20036;-31
2021/12/02 13:38:44;;;;;;;1.88;1.30;;;;;;;;;;5112056;28;20043;-30
2021/12/02 13:41:15;;;;;;;1.23;1.13;;;;;;;;;;5112593;28;20051;-30
2021/12/02 13:43:55;;;;;;;1.67;1.20;;;;;;;;;;5112101;28;20061;-31
2021/12/02 13:46:29;;;;;;;0.90;0.90;;;;;;;;;;5112513;28;20036;-30
2021/12/02 13:48:55;;;;;;;1.70;1.00;;;;;;;;;;5112628;28;20036;-31
2021/12/02 13:54:23;;;;;;;0.77;0.60;;;;;;;;;;5111847;28;20044;-33
2021/12/02 13:56:49;;;;;;;0.85;0.80;;;;;;;;;;5110940;28;20050;-31
2021/12/02 13:59:16;;;;;;;1.98;0.90;;;;;;;;;;5112733;28;20485;-30
2021/12/02 14:01:49;;;;;;;2.22;1.20;;;;;;;;;;5111139;28;20381;-29
2021/12/02 14:04:15;;;;;;;1.30;1.17;;;;;;;;;;5111678;28;20032;-32
2021/12/02 14:06:41;;;;;;;1.70;1.30;;;;;;;;;;5110417;28;20289;-30
2021/12/02 14:09:17;;;;;;;1.20;1.10;;;;;;;;;;5110935;28;20100;-32
2021/12/02 14:11:46;;;;;;;1.30;1.20;;;;;;;;;;5111988;28;20043;-30
2021/12/02 14:14:19;;;;;;;1.48;1.38;;;;;;;;;;5111554;28;20035;-32
2021/12/02 14:16:45;;;;;;;0.80;0.80;;;;;;;;;;5111724;28;20047;-30
2021/12/02 14:19:12;;;;;;;0.95;0.90;;;;;;;;;;5111544;27;20035;-33
2021/12/02 14:21:38;;;;;;;0.90;0.90;;;;;;;;;;5112073;28;20082;-34
2021/12/02 14:24:04;;;;;;;0.95;0.93;;;;;;;;;;5111261;28;20488;-30
2021/12/02 14:26:41;;;;;;;1.80;1.13;;;;;;;;;;5111281;28;20086;-29
2021/12/02 14:29:21;;;;;;;1.77;1.10;;;;;;;;;;5110616;28;20118;-30
2021/12/02 14:31:50;;;;;;;1.15;0.95;;;;;;;;;;5110683;28;20131;-32
2021/12/02 14:34:18;;;;;;;1.55;1.10;;;;;;;;;;5109851;28;20040;-30
2021/12/02 14:36:48;;;;;;;1.63;1.08;;;;;;;;;;5110494;28;20046;-30
2021/12/02 14:39:16;;;;;;;1.35;1.25;;;;;;;;;;5110298;28;20044;-30
2021/12/02 14:41:51;;;;;;;1.38;0.90;;;;;;;;;;5110611;28;20036;-29
2021/12/02 14:44:30;;;;;;;1.35;0.77;;;;;;;;;;5088523;28;20032;-30
2021/12/02 14:46:57;;;;;;;0.90;0.90;;;;;;;;;;5090771;28;20039;-29
2021/12/02 14:49:42;;;;;;;0.90;0.80;;;;;;;;;;5084007;28;20040;-33
2021/12/02 14:52:11;;;;;;;1.08;0.98;;;;;;;;;;5076994;28;20036;-31
2021/12/02 14:55:00;;;;;;;0.90;0.90;;;;;;;;;;5073747;28;20035;-32
2021/12/02 14:57:28;;;;;;;5.63;2.35;;;;;;;;;;5079243;28;20043;-35
2021/12/02 15:00:03;;;;;;;4.20;2.78;;;;;;;;;;5080617;28;20440;-34
2021/12/02 15:02:39;;;;;;;4.18;2.13;;;;;;;;;;5079392;28;20485;-31
2021/12/02 15:05:13;;;;;;;4.40;1.70;;;;;;;;;;5081597;28;20036;-29
2021/12/02 15:07:50;;;;;;;1.30;1.20;;;;;;;;;;5091212;28;20122;-28
2021/12/02 15:10:21;;;;;;;3.53;1.33;;;;;;;;;;5091224;28;20108;-29
2021/12/02 15:12:48;;;;;;;1.20;1.10;;;;;;;;;;5090814;28;20119;-29
2021/12/02 15:15:22;;;;;;;2.50;1.30;;;;;;;;;;5090976;28;20059;-29
2021/12/02 15:17:56;;;;;;;3.47;1.17;;;;;;;;;;5090923;28;20048;-29
2021/12/02 15:20:24;;;;;;;2.97;1.40;;;;;;;;;;5091237;28;20044;-29